Haymakertown, Virginia
Current Conditions -  °F | °C
As of 6:54 AM on Thursday 18 Dec 2014 (Local Time) from KROA Reporting Station
Broken Clouds Broken Clouds  
Wind Chill: 30°   Ceiling: 25000
Heat Index: 34°   Visibility: 10mi
Dew Point: 20°   Wind: 5mph
Humidity: 56%   Direction: NA
Pressure: 30.16"   Gusts: NA
Location:  37.4336°N, 79.937°W
Report Text: KROA 181154Z VRB04KT 10SM BKN250 01/M07 A3016 RMK AO2 SLP219 T00111067 10033 21006 51012
Loading
Personal Weather Stations






























Interactive Weather Map New forecast layout! Learn more

10-Day Weather Forecast

Advertisements
Track Severe Weather on mobile